Time;durP1;ratioP1;P1;durP2;ratioP2;P2;SDS_P1;SDS_P2;PMS_P1;PMS_P2;Temp;Humidity;BMP_temperature;BMP_pressure;BME280_temperature;BME280_humidity;BME280_pressure;Samples;Min_cycle;Max_cycle;Signal;HPM_P1;HPM_P2
2022/11/23 00:01:33;;;;;;;64.32;34.33;;;;;;;2.07;77.78;100639.75;1774808;80;21037;-80
2022/11/23 00:04:06;;;;;;;67.45;36.40;;;;;;;2.08;77.81;100641.52;1758257;79;21540;-80
2022/11/23 00:06:33;;;;;;;69.95;37.28;;;;;;;2.02;77.67;100629.48;1748762;80;21611;-80
2022/11/23 00:08:59;;;;;;;72.40;37.55;;;;;;;2.06;77.73;100636.64;1765901;79;21074;-80
2022/11/23 00:11:28;;;;;;;72.50;36.48;;;;;;;2.07;77.71;100636.73;1760575;79;23018;-80
2022/11/23 00:13:55;;;;;;;69.22;37.95;;;;;;;2.06;77.68;100640.13;1730573;80;21048;-80
2022/11/23 00:16:26;;;;;;;70.62;37.23;;;;;;;2.02;77.61;100639.46;1699294;82;21887;-80
2022/11/23 00:18:58;;;;;;;68.67;36.80;;;;;;;1.99;77.56;100639.30;1767649;80;21043;-80
2022/11/23 00:21:27;;;;;;;71.17;38.35;;;;;;;1.99;77.61;100638.39;1756206;79;20987;-80
2022/11/23 00:23:54;;;;;;;69.12;37.85;;;;;;;1.96;77.52;100644.72;1762493;79;23009;-80
2022/11/23 00:26:21;;;;;;;68.42;37.73;;;;;;;1.96;77.65;100639.12;1769468;79;21122;-80
2022/11/23 00:28:47;;;;;;;73.07;38.05;;;;;;;1.97;77.62;100639.63;1774671;79;21602;-80
2022/11/23 00:31:16;;;;;;;68.33;37.90;;;;;;;1.98;77.66;100640.09;1781820;80;21020;-80
2022/11/23 00:33:51;;;;;;;70.25;37.48;;;;;;;1.97;77.68;100631.84;1767603;79;22557;-80
2022/11/23 00:36:18;;;;;;;65.40;35.38;;;;;;;2.02;77.70;100640.77;1730582;79;21765;-80
2022/11/23 00:38:45;;;;;;;65.65;36.35;;;;;;;2.04;77.70;100627.88;1750141;80;21051;-80
2022/11/23 00:41:14;;;;;;;72.92;38.40;;;;;;;2.06;77.72;100630.15;1758647;79;21059;-80
2022/11/23 00:43:41;;;;;;;68.47;36.95;;;;;;;2.07;77.63;100627.64;1751484;80;21358;-82
2022/11/23 00:46:16;;;;;;;70.90;36.98;;;;;;;2.10;77.72;100629.52;1758865;80;22141;-79
2022/11/23 00:48:43;;;;;;;69.90;38.17;;;;;;;2.10;77.60;100625.23;1749920;79;21766;-80
2022/11/23 00:51:17;;;;;;;73.62;40.17;;;;;;;2.06;77.55;100623.25;1766681;79;21057;-82
2022/11/23 00:53:43;;;;;;;71.82;38.25;;;;;;;2.03;77.58;100627.40;1763703;79;21025;-80
2022/11/23 00:56:10;;;;;;;72.65;38.53;;;;;;;2.03;77.63;100626.98;1763609;80;21150;-80
2022/11/23 00:58:37;;;;;;;74.95;40.12;;;;;;;2.04;77.63;100623.56;1766322;79;20967;-80
2022/11/23 01:01:11;;;;;;;69.58;37.35;;;;;;;2.07;77.69;100631.54;1774438;79;21904;-80
2022/11/23 01:03:39;;;;;;;;;;;;;;;2.08;77.62;100634.64;1776244;79;21259;-81
2022/11/23 01:06:12;;;;;;;66.62;35.55;;;;;;;2.12;77.63;100636.60;1775023;79;20156;-81
2022/11/23 01:08:39;;;;;;;68.90;37.42;;;;;;;2.13;77.53;100638.38;1774986;79;21565;-80
2022/11/23 01:11:09;;;;;;;66.05;37.10;;;;;;;2.13;77.46;100640.97;1779275;79;21026;-80
2022/11/23 01:13:37;;;;;;;69.62;37.10;;;;;;;2.09;77.33;100639.42;1770849;79;22901;-80
2022/11/23 01:16:06;;;;;;;68.10;36.90;;;;;;;2.08;77.37;100651.52;1784860;79;21011;-80
2022/11/23 01:18:33;;;;;;;67.42;37.45;;;;;;;2.07;77.35;100644.52;1775265;79;21433;-80
2022/11/23 01:21:00;;;;;;;67.53;37.88;;;;;;;2.06;77.41;100640.13;1776135;79;20966;-80
2022/11/23 01:23:30;;;;;;;73.15;39.27;;;;;;;2.06;77.37;100645.73;1775632;79;20950;-80
2022/11/23 01:25:57;;;;;;;74.45;39.45;;;;;;;2.03;77.38;100644.28;1778064;79;21729;-80
2022/11/23 01:28:24;;;;;;;75.97;40.35;;;;;;;2.05;77.52;100649.15;1772431;79;21036;-80
2022/11/23 01:30:51;;;;;;;67.62;37.67;;;;;;;2.09;77.49;100645.91;1778328;79;21032;-80
2022/11/23 01:33:17;;;;;;;65.87;36.77;;;;;;;2.09;77.38;100632.93;1783939;79;20972;-80
2022/11/23 01:35:44;;;;;;;71.10;38.83;;;;;;;2.08;77.37;100637.24;1781757;79;21007;-80
2022/11/23 01:38:10;;;;;;;66.50;36.90;;;;;;;2.06;77.30;100645.31;1778115;79;22988;-80
2022/11/23 01:40:41;;;;;;;68.85;36.98;;;;;;;2.07;77.35;100647.12;1769690;79;20990;-80
2022/11/23 01:43:14;;;;;;;70.40;36.65;;;;;;;2.07;77.37;100645.82;1787967;79;20991;-81
2022/11/23 01:45:58;;;;;;;71.90;37.35;;;;;;;2.07;77.28;100644.94;1771724;79;21132;-81
2022/11/23 01:48:48;;;;;;;64.35;35.20;;;;;;;2.08;77.33;100655.80;1771939;79;20956;-81
2022/11/23 01:51:18;;;;;;;68.45;36.28;;;;;;;2.06;77.29;100650.51;1770001;79;21716;-81
2022/11/23 01:53:45;;;;;;;68.45;37.53;;;;;;;2.05;77.27;100651.33;1773861;79;20972;-80
2022/11/23 01:56:16;;;;;;;71.10;37.60;;;;;;;2.05;77.25;100650.45;1776364;79;20940;-81
2022/11/23 01:58:47;;;;;;;67.50;34.85;;;;;;;1.99;77.23;100646.17;1774235;79;21003;-81
2022/11/23 02:01:14;;;;;;;74.37;36.42;;;;;;;1.94;77.25;100646.81;1770414;79;20990;-78
2022/11/23 02:03:42;;;;;;;69.75;35.98;;;;;;;1.95;77.33;100645.10;1774815;79;21701;-79
2022/11/23 02:06:13;;;;;;;66.67;35.17;;;;;;;1.94;77.29;100645.92;1771814;79;21011;-79
2022/11/23 02:08:40;;;;;;;63.70;34.53;;;;;;;1.93;77.33;100642.83;1748258;80;20970;-79
2022/11/23 02:11:07;;;;;;;68.12;36.55;;;;;;;1.91;77.36;100642.73;1771582;79;21428;-80
2022/11/23 02:13:34;;;;;;;66.72;36.17;;;;;;;1.92;77.38;100641.94;1776423;79;21052;-80
2022/11/23 02:16:01;;;;;;;69.67;35.98;;;;;;;1.91;77.39;100637.95;1768984;79;21800;-82
2022/11/23 02:18:30;;;;;;;64.92;35.13;;;;;;;1.90;77.39;100640.95;1775445;79;20971;-79
2022/11/23 02:20:58;;;;;;;64.82;34.88;;;;;;;1.92;77.40;100635.45;1776242;79;21032;-81
2022/11/23 02:24:05;;;;;;;65.83;35.85;;;;;;;1.89;77.40;100636.55;1780997;78;21437;-82
2022/11/23 02:26:33;;;;;;;64.87;35.00;;;;;;;1.90;77.43;100638.77;1761909;79;21456;-83
2022/11/23 02:29:07;;;;;;;70.70;35.65;;;;;;;1.91;77.50;100636.66;1752852;79;21720;-82
2022/11/23 02:31:34;;;;;;;65.17;35.03;;;;;;;1.94;77.58;100640.73;1756484;79;20972;-82
2022/11/23 02:34:01;;;;;;;66.17;34.10;;;;;;;1.98;77.57;100636.20;1757798;79;20984;-82
2022/11/23 02:36:40;;;;;;;60.52;34.55;;;;;;;1.99;77.51;100632.81;1755141;79;21528;-82
2022/11/23 02:39:11;;;;;;;64.47;34.35;;;;;;;2.00;77.55;100638.48;1712829;82;21581;-82
2022/11/23 02:41:43;;;;;;;64.85;35.92;;;;;;;1.97;77.51;100634.44;1757906;80;22224;-82
2022/11/23 02:44:27;;;;;;;62.83;35.00;;;;;;;1.97;77.58;100638.33;1752096;80;20981;-82
2022/11/23 02:46:54;;;;;;;65.20;35.70;;;;;;;1.94;77.56;100632.53;1716403;82;20980;-82
2022/11/23 02:49:20;;;;;;;65.85;36.50;;;;;;;1.93;77.56;100640.23;1718615;82;21002;-82
2022/11/23 02:51:47;;;;;;;63.98;36.83;;;;;;;1.91;77.61;100636.66;1754287;79;20988;-82
2022/11/23 02:54:14;;;;;;;71.57;38.15;;;;;;;1.91;77.60;100637.95;1749467;80;22629;-82
2022/11/23 02:56:41;;;;;;;67.47;36.80;;;;;;;1.86;77.56;100633.80;1753147;79;21477;-82
2022/11/23 02:59:07;;;;;;;69.05;35.58;;;;;;;1.85;77.63;100629.82;1759650;79;20953;-82
2022/11/23 03:01:34;;;;;;;66.10;35.38;;;;;;;1.85;77.69;100633.30;1769784;79;20960;-82
2022/11/23 03:04:01;;;;;;;63.75;35.38;;;;;;;1.83;77.69;100623.23;1720301;82;21007;-82
2022/11/23 03:06:28;;;;;;;62.93;35.28;;;;;;;1.85;77.75;100625.52;1729276;81;21760;-82
2022/11/23 03:08:54;;;;;;;67.10;36.00;;;;;;;1.88;77.76;100627.41;1735315;82;21009;-82
2022/11/23 03:11:21;;;;;;;63.23;35.05;;;;;;;1.87;77.75;100624.31;1783954;79;21507;-82
2022/11/23 03:13:48;;;;;;;62.17;34.27;;;;;;;1.86;77.72;100632.89;1773222;79;21526;-82
2022/11/23 03:16:15;;;;;;;62.65;35.38;;;;;;;1.88;77.81;100627.00;1777185;79;20967;-82
2022/11/23 03:18:42;;;;;;;61.77;34.33;;;;;;;1.89;77.76;100622.70;1779167;79;22799;-82
2022/11/23 03:21:09;;;;;;;61.60;33.15;;;;;;;1.86;77.73;100627.70;1777989;79;20957;-82
2022/11/23 03:23:36;;;;;;;62.70;35.63;;;;;;;1.87;77.80;100623.02;1776697;79;20941;-81
2022/11/23 03:26:02;;;;;;;63.95;34.60;;;;;;;1.85;77.76;100624.63;1774351;79;21596;-81
2022/11/23 03:28:29;;;;;;;60.95;33.85;;;;;;;1.85;77.82;100622.92;1741201;80;21677;-82
2022/11/23 03:30:56;;;;;;;61.80;34.50;;;;;;;1.84;77.84;100624.12;1706210;82;22563;-82
2022/11/23 03:33:22;;;;;;;60.70;34.73;;;;;;;1.84;77.84;100622.82;1722343;82;21076;-82
2022/11/23 03:35:49;;;;;;;64.62;35.33;;;;;;;1.85;77.87;100619.02;1726230;82;20967;-81
2022/11/23 03:38:16;;;;;;;63.73;34.55;;;;;;;1.86;77.88;100618.23;1728769;81;20984;-81
2022/11/23 03:40:46;;;;;;;58.42;32.35;;;;;;;1.86;77.82;100623.80;1719923;82;21051;-81
2022/11/23 03:43:13;;;;;;;65.70;35.13;;;;;;;1.85;77.83;100623.33;1724911;81;21738;-82
2022/11/23 03:45:40;;;;;;;66.75;35.23;;;;;;;1.83;77.80;100619.75;1720502;82;21023;-83
2022/11/23 03:48:07;;;;;;;61.70;33.18;;;;;;;1.83;77.79;100615.45;1712238;82;20984;-82
2022/11/23 03:50:34;;;;;;;59.15;32.78;;;;;;;1.81;77.82;100615.77;1702082;81;20976;-82
2022/11/23 03:53:00;;;;;;;62.50;33.30;;;;;;;1.82;77.80;100613.67;1710699;82;20972;-82
2022/11/23 03:55:27;;;;;;;59.88;33.45;;;;;;;1.79;77.75;100616.50;1717474;82;21729;-81
2022/11/23 03:57:58;;;;;;;59.93;34.78;;;;;;;1.78;77.85;100612.98;1717119;82;20981;-80
2022/11/23 04:00:22;;;;;;;58.35;33.55;;;;;;;1.78;77.80;100614.69;1737573;81;21004;-81
2022/11/23 04:02:49;;;;;;;63.95;34.27;;;;;;;1.76;77.85;100618.48;1737524;81;20980;-81
2022/11/23 04:05:16;;;;;;;61.25;34.00;;;;;;;1.75;77.96;100616.30;1681788;84;21126;-79
2022/11/23 04:07:43;;;;;;;68.62;34.48;;;;;;;1.74;77.92;100617.09;1729215;81;22838;-79
2022/11/23 04:10:10;;;;;;;60.80;33.85;;;;;;;1.73;77.92;100611.84;1732912;81;21867;-79
2022/11/23 04:12:36;;;;;;;62.62;34.15;;;;;;;1.70;77.90;100619.03;1733576;81;21021;-81
2022/11/23 04:15:04;;;;;;;59.93;32.98;;;;;;;1.70;77.97;100622.92;1735551;81;20968;-81
2022/11/23 04:17:31;;;;;;;64.67;34.45;;;;;;;1.70;78.00;100622.92;1734640;80;21857;-81
2022/11/23 04:19:57;;;;;;;61.50;33.40;;;;;;;1.69;77.97;100611.15;1732301;81;21645;-81
2022/11/23 04:22:24;;;;;;;59.40;33.55;;;;;;;1.66;77.97;100614.88;1730626;81;20956;-81
2022/11/23 04:24:51;;;;;;;61.02;32.25;;;;;;;1.62;77.96;100615.52;1731770;81;20971;-81
2022/11/23 04:27:18;;;;;;;58.60;33.25;;;;;;;1.63;78.03;100621.17;1730986;81;21382;-81
2022/11/23 04:29:44;;;;;;;60.03;32.98;;;;;;;1.63;78.14;100623.36;1736411;81;21004;-81
2022/11/23 04:32:11;;;;;;;58.63;32.78;;;;;;;1.65;78.19;100623.08;1728360;81;22578;-81
2022/11/23 04:34:38;;;;;;;57.85;32.60;;;;;;;1.68;78.13;100631.43;1727721;81;21519;-81
2022/11/23 04:37:04;;;;;;;58.60;31.90;;;;;;;1.67;78.14;100634.44;1723260;81;21053;-81
2022/11/23 04:39:31;;;;;;;65.12;33.98;;;;;;;1.69;78.11;100637.09;1684015;84;21168;-81
2022/11/23 04:41:58;;;;;;;61.75;31.97;;;;;;;1.65;78.03;100639.94;1677378;83;21043;-80
2022/11/23 04:44:25;;;;;;;56.20;31.10;;;;;;;1.65;78.09;100629.94;1679507;84;21767;-80
2022/11/23 04:46:51;;;;;;;65.25;32.40;;;;;;;1.63;78.12;100637.63;1680278;84;21058;-79
2022/11/23 04:49:18;;;;;;;59.08;32.10;;;;;;;1.64;78.09;100626.46;1675689;84;21043;-79
2022/11/23 04:51:45;;;;;;;65.03;33.65;;;;;;;1.64;78.11;100634.66;1671790;84;21062;-81
2022/11/23 04:54:11;;;;;;;63.30;32.93;;;;;;;1.62;78.13;100633.67;1678684;84;21047;-81
2022/11/23 04:56:38;;;;;;;66.12;33.98;;;;;;;1.62;78.19;100621.59;1673942;84;21776;-81
2022/11/23 04:59:06;;;;;;;67.12;35.08;;;;;;;1.64;78.21;100619.97;1678116;83;21103;-81
2022/11/23 05:01:33;;;;;;;70.87;33.20;;;;;;;1.66;78.27;100626.14;1704476;83;21016;-83
2022/11/23 05:03:59;;;;;;;71.92;33.67;;;;;;;1.69;78.29;100622.83;1701345;82;21055;-81
2022/11/23 05:06:30;;;;;;;67.87;33.00;;;;;;;1.70;78.22;100623.33;1700995;82;21092;-82
2022/11/23 05:08:56;;;;;;;74.05;35.80;;;;;;;1.73;78.24;100629.59;1708489;83;22641;-81
2022/11/23 05:11:25;;;;;;;73.37;34.75;;;;;;;1.75;78.13;100631.88;1699161;83;21069;-81
2022/11/23 05:13:52;;;;;;;65.97;33.53;;;;;;;1.73;78.07;100630.01;1699848;83;21112;-82
2022/11/23 05:16:19;;;;;;;65.95;33.18;;;;;;;1.68;77.97;100634.03;1703442;83;21079;-82
2022/11/23 05:18:46;;;;;;;72.05;35.88;;;;;;;1.67;78.08;100638.70;1699240;83;21121;-82
2022/11/23 05:21:13;;;;;;;71.33;34.35;;;;;;;1.70;78.17;100633.71;1706903;82;21801;-80
2022/11/23 05:23:39;;;;;;;67.00;34.45;;;;;;;1.68;78.15;100633.61;1701801;83;21050;-79
2022/11/23 05:26:06;;;;;;;71.77;36.08;;;;;;;1.69;78.14;100631.91;1708560;83;21644;-81
2022/11/23 05:28:33;;;;;;;76.28;38.30;;;;;;;1.67;78.21;100625.73;1759018;79;21571;-80
2022/11/23 05:31:00;;;;;;;69.20;35.45;;;;;;;1.69;78.24;100630.61;1765589;80;22110;-81
2022/11/23 05:33:26;;;;;;;75.00;38.48;;;;;;;1.64;78.14;100625.16;1746359;80;21725;-83
2022/11/23 05:35:53;;;;;;;74.60;38.08;;;;;;;1.65;78.26;100622.16;1746031;80;21450;-87
2022/11/23 05:38:20;;;;;;;71.42;36.75;;;;;;;1.66;78.33;100623.55;1762378;80;20964;-81
2022/11/23 05:40:47;;;;;;;72.75;37.83;;;;;;;1.67;78.33;100614.06;1757534;79;21497;-81
2022/11/23 05:43:14;;;;;;;82.05;40.70;;;;;;;1.69;78.39;100617.64;1748993;80;45616;-81
2022/11/23 05:45:41;;;;;;;78.62;38.90;;;;;;;1.70;78.35;100622.03;1764164;80;21829;-86
2022/11/23 05:48:09;;;;;;;78.22;40.28;;;;;;;1.66;78.22;100621.37;1700377;84;20972;-81
2022/11/23 05:50:35;;;;;;;77.85;40.65;;;;;;;1.64;78.31;100630.77;1756345;79;20950;-82
2022/11/23 05:53:02;;;;;;;79.95;39.15;;;;;;;1.67;78.44;100621.84;1764526;80;21333;-87
2022/11/23 05:55:29;;;;;;;76.37;39.83;;;;;;;1.67;78.40;100624.06;1702592;82;21660;-81
2022/11/23 05:57:56;;;;;;;82.22;41.77;;;;;;;1.71;78.45;100623.84;1752962;80;21767;-81
2022/11/23 06:00:22;;;;;;;88.97;43.78;;;;;;;1.68;78.47;100627.54;1753111;80;21410;-83
2022/11/23 06:02:49;;;;;;;80.83;41.28;;;;;;;1.75;78.48;100632.28;1778612;79;21638;-87
2022/11/23 06:05:17;;;;;;;85.75;42.17;;;;;;;1.73;78.42;100620.52;1781757;79;21514;-84
2022/11/23 06:07:44;;;;;;;89.83;43.33;;;;;;;1.72;78.39;100621.30;1771964;79;21011;-84
2022/11/23 06:10:10;;;;;;;73.50;36.42;;;;;;;1.69;78.37;100615.04;1720969;82;21737;-84
2022/11/23 06:12:37;;;;;;;85.80;41.83;;;;;;;1.64;78.38;100610.01;1776926;79;21156;-88
2022/11/23 06:15:10;;;;;;;83.27;40.48;;;;;;;1.65;78.43;100619.56;1710630;82;21078;-86
2022/11/23 06:17:40;;;;;;;81.87;41.60;;;;;;;1.67;78.58;100625.73;1773852;80;21205;-84
2022/11/23 06:20:08;;;;;;;89.07;44.33;;;;;;;1.68;78.53;100620.64;1770484;79;21053;-87
2022/11/23 06:22:35;;;;;;;81.47;42.35;;;;;;;1.67;78.57;100627.95;1782120;79;21789;-84
2022/11/23 06:25:09;;;;;;;91.92;45.60;;;;;;;1.70;78.63;100628.52;1774931;79;21489;-87
2022/11/23 06:27:36;;;;;;;89.13;44.53;;;;;;;1.72;78.67;100630.39;1777743;79;21078;-85
2022/11/23 06:30:04;;;;;;;86.82;42.93;;;;;;;1.75;78.64;100625.80;1712324;81;21127;-85
2022/11/23 06:32:30;;;;;;;82.33;41.18;;;;;;;1.74;78.51;100629.19;1774537;79;21068;-85
2022/11/23 06:34:59;;;;;;;79.47;40.35;;;;;;;1.73;78.59;100632.61;1779222;79;21575;-84
2022/11/23 06:37:27;;;;;;;80.53;40.60;;;;;;;1.74;78.54;100634.38;1774128;79;21030;-84
2022/11/23 06:39:54;;;;;;;81.53;40.98;;;;;;;1.80;78.63;100639.03;1774669;79;21038;-84
2022/11/23 06:42:27;;;;;;;86.90;43.95;;;;;;;1.80;78.61;100643.80;1769986;79;21220;-85
2022/11/23 06:44:54;;;;;;;83.62;43.75;;;;;;;1.83;78.55;100642.70;1775357;80;21101;-84
2022/11/23 06:47:20;;;;;;;85.30;43.75;;;;;;;1.79;78.44;100644.63;1779088;79;21744;-85
2022/11/23 06:49:47;;;;;;;87.60;41.35;;;;;;;1.77;78.50;100641.05;1780142;79;21484;-85
2022/11/23 06:52:14;;;;;;;84.58;43.68;;;;;;;1.80;78.57;100649.41;1774330;79;21073;-84
2022/11/23 06:54:41;;;;;;;90.50;45.05;;;;;;;1.83;78.64;100650.89;1773209;80;21462;-84
2022/11/23 06:57:08;;;;;;;89.77;44.10;;;;;;;1.81;78.59;100645.61;1773223;79;21661;-85
2022/11/23 06:59:36;;;;;;;98.70;46.10;;;;;;;1.82;78.57;100644.82;1773059;79;21046;-84
2022/11/23 07:02:03;;;;;;;93.37;47.13;;;;;;;1.80;78.53;100652.00;1781536;79;21052;-85
2022/11/23 07:04:33;;;;;;;96.67;45.38;;;;;;;1.80;78.62;100654.59;1784783;79;21138;-84
2022/11/23 07:07:00;;;;;;;94.50;46.88;;;;;;;1.82;78.59;100652.98;1771834;79;21090;-84
2022/11/23 07:09:27;;;;;;;92.00;45.35;;;;;;;1.84;78.66;100660.08;1716361;82;21070;-84
2022/11/23 07:11:54;;;;;;;89.62;45.30;;;;;;;1.79;78.58;100655.02;1770280;79;22616;-84
2022/11/23 07:14:22;;;;;;;84.95;42.35;;;;;;;1.84;78.57;100669.54;1776602;79;21040;-84
2022/11/23 07:16:49;;;;;;;84.28;43.80;;;;;;;1.86;78.60;100667.92;1777947;79;21044;-84
2022/11/23 07:19:22;;;;;;;91.15;43.92;;;;;;;1.89;78.58;100670.30;1776835;79;21160;-84
2022/11/23 07:21:49;;;;;;;88.15;44.48;;;;;;;1.89;78.55;100670.30;1775285;79;21128;-83
2022/11/23 07:24:15;;;;;;;87.75;43.58;;;;;;;1.89;78.52;100664.22;1771714;79;21818;-82
2022/11/23 07:26:42;;;;;;;84.95;43.28;;;;;;;1.92;78.52;100665.71;1772103;79;22276;-83
2022/11/23 07:29:09;;;;;;;86.55;43.73;;;;;;;1.93;78.54;100654.50;1775176;79;21435;-83
2022/11/23 07:31:36;;;;;;;85.60;43.40;;;;;;;1.94;78.49;100654.59;1776448;79;21899;-83
2022/11/23 07:34:03;;;;;;;92.35;45.03;;;;;;;1.95;78.45;100660.67;1781573;79;20988;-83
2022/11/23 07:36:30;;;;;;;87.67;42.58;;;;;;;1.91;78.41;100672.58;1780475;79;21855;-83
2022/11/23 07:38:57;;;;;;;83.20;38.83;;;;;;;1.96;78.54;100675.46;1776697;79;20944;-83
2022/11/23 07:41:26;;;;;;;87.22;41.45;;;;;;;1.98;78.47;100671.66;1775715;79;20958;-83
2022/11/23 07:43:53;;;;;;;84.20;43.95;;;;;;;1.94;78.37;100664.09;1777066;79;21694;-83
2022/11/23 07:46:20;;;;;;;90.83;44.70;;;;;;;1.91;78.25;100668.69;1778306;79;21001;-83
2022/11/23 07:48:46;;;;;;;84.10;42.80;;;;;;;1.86;78.28;100665.33;1775471;79;22658;-83
2022/11/23 07:51:18;;;;;;;90.47;45.25;;;;;;;1.84;78.29;100665.27;1773841;79;20988;-83
2022/11/23 07:53:44;;;;;;;90.92;45.73;;;;;;;1.80;78.27;100661.09;1771266;79;21019;-82
2022/11/23 07:56:11;;;;;;;89.15;44.33;;;;;;;1.79;78.31;100669.70;1777448;79;20965;-83
2022/11/23 07:58:38;;;;;;;84.85;42.60;;;;;;;1.78;78.34;100673.97;1781356;79;20970;-83
2022/11/23 08:01:05;;;;;;;86.67;42.38;;;;;;;1.78;78.33;100678.27;1780289;79;21718;-83
2022/11/23 08:03:33;;;;;;;85.87;42.85;;;;;;;1.77;78.33;100672.61;1776520;79;21003;-82
2022/11/23 08:06:00;;;;;;;100.38;50.12;;;;;;;1.77;78.39;100676.09;1768531;79;21007;-82
2022/11/23 08:08:27;;;;;;;91.45;48.23;;;;;;;1.77;78.33;100679.09;1775338;79;21452;-83
2022/11/23 08:10:59;;;;;;;91.20;43.55;;;;;;;1.77;78.38;100680.39;1773735;79;21423;-83
2022/11/23 08:13:26;;;;;;;86.00;42.53;;;;;;;1.82;78.59;100687.64;1768993;80;22535;-83
2022/11/23 08:15:53;;;;;;;91.85;41.88;;;;;;;1.91;78.66;100684.67;1770394;79;20960;-82
2022/11/23 08:18:22;;;;;;;79.25;39.75;;;;;;;1.99;78.54;100682.52;1689768;82;20977;-83
2022/11/23 08:20:49;;;;;;;80.22;40.65;;;;;;;2.03;78.44;100691.00;1714989;82;21780;-83
2022/11/23 08:25:56;;;;;;;90.20;42.13;;;;;;;2.12;78.40;100678.52;1754938;80;22797;-83
2022/11/23 08:28:23;;;;;;;95.50;44.30;;;;;;;2.09;78.34;100683.56;1702281;83;22028;-83
2022/11/23 08:30:50;;;;;;;90.85;43.45;;;;;;;2.13;78.34;100688.12;1673590;84;22069;-83
2022/11/23 08:33:17;;;;;;;80.30;40.70;;;;;;;2.16;78.27;100688.69;1679679;84;21079;-83
2022/11/23 08:35:44;;;;;;;86.45;43.58;;;;;;;2.18;78.24;100689.67;1680163;84;21094;-83
2022/11/23 08:38:12;;;;;;;91.80;41.90;;;;;;;2.20;78.16;100691.98;1681181;84;21098;-83
2022/11/23 08:40:38;;;;;;;83.65;43.28;;;;;;;2.22;78.16;100692.55;1681667;83;21094;-82
2022/11/23 08:43:05;;;;;;;88.85;45.05;;;;;;;2.21;78.00;100684.25;1684667;83;22411;-83
2022/11/23 08:45:33;;;;;;;86.67;41.90;;;;;;;2.24;78.04;100690.05;1688864;83;21163;-83
2022/11/23 08:48:01;;;;;;;88.85;44.65;;;;;;;2.21;77.87;100688.15;1686873;83;21093;-83
2022/11/23 08:50:29;;;;;;;87.50;44.93;;;;;;;2.19;77.90;100685.87;1651365;84;21089;-83
2022/11/23 08:52:57;;;;;;;95.40;45.50;;;;;;;2.19;77.99;100680.67;1688797;83;21088;-83
2022/11/23 08:55:24;;;;;;;97.42;47.25;;;;;;;2.21;77.93;100688.56;1675177;83;21820;-83
2022/11/23 08:57:59;;;;;;;95.12;46.18;;;;;;;2.22;77.95;100687.35;1682290;84;21090;-83
2022/11/23 09:00:26;;;;;;;86.10;43.63;;;;;;;2.20;77.88;100684.19;1685910;83;21071;-84
2022/11/23 09:02:55;;;;;;;91.53;44.70;;;;;;;2.17;77.82;100680.99;1679696;84;21068;-83
2022/11/23 09:05:23;;;;;;;89.90;44.85;;;;;;;2.18;77.96;100680.58;1685355;83;21031;-83
2022/11/23 09:07:50;;;;;;;95.83;43.38;;;;;;;2.20;77.94;100682.48;1685347;83;21740;-83
2022/11/23 09:10:17;;;;;;;89.60;43.83;;;;;;;2.25;77.97;100690.52;1683383;83;21000;-83
2022/11/23 09:12:44;;;;;;;89.75;45.98;;;;;;;2.23;77.87;100683.05;1688071;83;20968;-83
2022/11/23 09:15:11;;;;;;;91.75;44.35;;;;;;;2.25;77.87;100678.83;1682356;83;21037;-82
2022/11/23 09:17:38;;;;;;;85.83;41.58;;;;;;;2.26;77.83;100684.13;1681904;83;21015;-82
2022/11/23 09:22:31;;;;;;;84.83;42.23;;;;;;;2.26;77.88;100689.31;1685890;84;21462;-83
2022/11/23 09:24:58;;;;;;;84.45;41.15;;;;;;;2.32;78.06;100683.58;1679298;84;21018;-83
2022/11/23 09:27:26;;;;;;;88.67;43.25;;;;;;;2.40;78.07;100683.59;1687344;84;21056;-83
2022/11/23 09:29:53;;;;;;;90.30;42.90;;;;;;;2.45;77.95;100687.35;1704037;83;21599;-83
2022/11/23 09:32:20;;;;;;;81.80;39.88;;;;;;;2.46;77.90;100685.27;1690779;83;21743;-83
2022/11/23 09:34:47;;;;;;;80.30;40.63;;;;;;;2.38;77.60;100681.31;1682868;84;21003;-83
2022/11/23 09:37:14;;;;;;;82.80;40.05;;;;;;;2.37;77.74;100682.14;1693179;83;21032;-83
2022/11/23 09:39:42;;;;;;;75.80;38.30;;;;;;;2.44;77.87;100683.36;1646182;84;21011;-84
2022/11/23 09:42:40;;;;;;;84.28;42.93;;;;;;;2.50;77.88;100691.11;1670566;84;21591;-83
2022/11/23 09:45:19;;;;;;;77.78;39.33;;;;;;;2.57;77.84;100693.63;1711080;83;22576;-83
2022/11/23 09:47:54;;;;;;;85.15;41.60;;;;;;;2.60;77.69;100695.12;1710470;83;21088;-83
2022/11/23 09:50:25;;;;;;;82.65;41.23;;;;;;;2.63;77.65;100687.92;1703310;83;21125;-83
2022/11/23 09:52:53;;;;;;;83.03;41.55;;;;;;;2.62;77.54;100692.61;1674392;84;21106;-83
2022/11/23 09:55:40;;;;;;;82.05;39.48;;;;;;;2.59;77.50;100688.53;1705150;83;21162;-84
2022/11/23 09:58:16;;;;;;;65.70;34.20;;;;;;;2.56;77.40;100691.86;1700752;83;21774;-85
2022/11/23 10:00:50;;;;;;;81.12;39.27;;;;;;;2.57;77.49;100689.73;1702529;83;21540;-85
2022/11/23 10:03:17;;;;;;;69.42;37.45;;;;;;;2.49;77.32;100691.02;1685844;84;21077;-85
2022/11/23 10:06:08;;;;;;;77.12;38.33;;;;;;;2.44;77.34;100684.66;1699644;83;21120;-85
2022/11/23 10:08:56;;;;;;;74.37;39.15;;;;;;;2.46;77.50;100685.27;1672415;85;21132;-85
2022/11/23 10:11:43;;;;;;;84.60;42.20;;;;;;;2.49;77.45;100682.81;1679373;84;21790;-85
2022/11/23 10:14:33;;;;;;;82.92;40.12;;;;;;;2.55;77.64;100678.78;1670119;85;21098;-85
2022/11/23 10:17:23;;;;;;;84.58;41.53;;;;;;;2.61;77.65;100681.70;1721172;82;21079;-85
2022/11/23 10:20:27;;;;;;;76.75;39.67;;;;;;;2.66;77.64;100678.97;1729894;81;21043;-85
2022/11/23 10:22:59;;;;;;;84.00;40.70;;;;;;;2.70;77.46;100678.33;1735396;81;21496;-84
2022/11/23 10:25:41;;;;;;;80.45;40.15;;;;;;;2.64;77.40;100674.98;1729475;81;21941;-84
2022/11/23 10:28:14;;;;;;;87.78;42.43;;;;;;;2.68;77.52;100668.25;1736355;81;21031;-83
2022/11/23 10:30:44;;;;;;;88.05;44.40;;;;;;;2.71;77.55;100660.22;1718455;82;20968;-85
2022/11/23 10:33:31;;;;;;;84.80;43.42;;;;;;;2.72;77.42;100657.21;1741100;81;20972;-83
2022/11/23 10:35:59;;;;;;;80.75;41.10;;;;;;;2.72;77.39;100667.22;1721514;81;21074;-83
2022/11/23 10:38:27;;;;;;;82.90;41.95;;;;;;;2.75;77.51;100656.50;1731764;81;22588;-84
2022/11/23 10:41:04;;;;;;;82.55;42.98;;;;;;;2.80;77.44;100657.66;1722224;82;21106;-84
2022/11/23 10:44:00;;;;;;;86.72;43.70;;;;;;;2.83;77.45;100660.41;1729049;81;22002;-84
2022/11/23 10:46:38;;;;;;;83.90;41.88;;;;;;;2.87;77.47;100663.27;1724073;81;21112;-84
2022/11/23 10:49:23;;;;;;;82.15;42.85;;;;;;;2.95;77.46;100662.39;1732988;82;21098;-83
2022/11/23 10:52:04;;;;;;;84.95;40.83;;;;;;;3.01;77.37;100656.63;1730894;81;22390;-84
2022/11/23 10:54:38;;;;;;;74.15;39.10;;;;;;;3.01;77.16;100650.13;1707398;82;21080;-84
2022/11/23 10:57:32;;;;;;;72.15;39.13;;;;;;;3.01;77.07;100662.70;1733622;81;21058;-84
2022/11/23 11:00:09;;;;;;;72.80;37.70;;;;;;;3.02;77.12;100656.71;1730117;82;21098;-84
2022/11/23 11:02:52;;;;;;;80.03;40.15;;;;;;;3.07;77.04;100651.73;1733361;82;21097;-84
2022/11/23 11:06:05;;;;;;;79.37;41.28;;;;;;;3.07;76.97;100650.02;1736166;81;21803;-86
2022/11/23 11:08:59;;;;;;;81.25;40.95;;;;;;;3.13;77.11;100650.75;1648125;85;21349;-85
2022/11/23 11:11:56;;;;;;;78.33;39.05;;;;;;;3.21;77.02;100650.78;1631738;84;21165;-85
2022/11/23 11:14:46;;;;;;;77.60;38.20;;;;;;;3.24;76.80;100640.93;1655868;84;21118;-85
2022/11/23 11:17:43;;;;;;;72.90;37.30;;;;;;;3.17;76.57;100640.11;1634433;84;21130;-85
2022/11/23 11:20:57;;;;;;;;;;;;;;;;;;;;;
2022/11/23 11:23:47;;;;;;;77.75;40.95;;;;;;;3.16;76.75;100644.43;1599569;88;22028;-86
2022/11/23 11:26:29;;;;;;;79.07;40.78;;;;;;;3.05;76.71;100620.45;1604638;87;21187;-85
2022/11/23 11:29:10;;;;;;;80.32;41.60;;;;;;;3.18;76.63;100646.70;1640718;85;21746;-83
2022/11/23 11:32:20;;;;;;;77.12;41.45;;;;;;;3.14;76.50;100642.57;1599396;87;21113;-85
2022/11/23 11:35:43;;;;;;;;;;;;;;;;;;;;;
2022/11/23 11:38:34;;;;;;;79.67;41.02;;;;;;;3.04;76.47;100639.48;1599274;88;21130;-84
2022/11/23 11:41:10;;;;;;;76.82;39.08;;;;;;;2.99;76.43;100642.65;1567277;89;21039;-83